Time;durP1;ratioP1;P1;durP2;ratioP2;P2;SDS_P1;SDS_P2;PMS_P1;PMS_P2;Temp;Humidity;BMP_temperature;BMP_pressure;BME280_temperature;BME280_humidity;BME280_pressure;Samples;Min_cycle;Max_cycle;Signal;HPM_P1;HPM_P2
2021/10/22 00:02:12;;;;;;;8.18;6.10;;;13.90;77.20;;;;;;4989155;28;20077;-52
2021/10/22 00:04:38;;;;;;;10.82;6.50;;;13.90;77.20;;;;;;4997078;28;20018;-52
2021/10/22 00:07:04;;;;;;;8.23;6.28;;;13.90;77.40;;;;;;4997116;28;20054;-52
2021/10/22 00:09:30;;;;;;;8.68;6.25;;;13.80;77.20;;;;;;4997142;28;20034;-52
2021/10/22 00:11:55;;;;;;;8.73;6.18;;;13.80;77.20;;;;;;4997355;28;20394;-52
2021/10/22 00:14:21;;;;;;;7.28;5.57;;;13.80;77.30;;;;;;4989254;28;20037;-53
2021/10/22 00:16:47;;;;;;;8.10;5.78;;;13.90;77.30;;;;;;4996842;28;20463;-51
2021/10/22 00:19:13;;;;;;;7.22;5.47;;;13.90;77.40;;;;;;4990787;28;20026;-51
2021/10/22 00:21:39;;;;;;;7.95;5.93;;;13.90;77.30;;;;;;4996720;28;20025;-52
2021/10/22 00:24:05;;;;;;;8.13;5.70;;;13.90;77.20;;;;;;4996745;28;20451;-52
2021/10/22 00:26:31;;;;;;;8.40;6.07;;;13.90;77.20;;;;;;4996403;28;20042;-51
2021/10/22 00:28:57;;;;;;;9.00;6.32;;;13.90;77.20;;;;;;4996532;28;20030;-52
2021/10/22 00:31:23;;;;;;;9.25;5.60;;;13.90;77.20;;;;;;4988856;28;20042;-52
2021/10/22 00:33:50;;;;;;;7.80;5.63;;;13.90;77.10;;;;;;4996493;28;20371;-52
2021/10/22 00:36:16;;;;;;;7.90;5.70;;;13.90;77.10;;;;;;4996741;28;20033;-51
2021/10/22 00:38:42;;;;;;;8.35;6.13;;;13.90;77.00;;;;;;4987148;28;20418;-51
2021/10/22 00:41:07;;;;;;;9.90;6.68;;;13.90;77.10;;;;;;4987210;28;20026;-53
2021/10/22 00:43:33;;;;;;;9.07;6.32;;;13.90;77.00;;;;;;4984227;28;20026;-52
2021/10/22 00:46:00;;;;;;;8.32;6.80;;;13.90;77.00;;;;;;4995243;28;20077;-52
2021/10/22 00:48:26;;;;;;;9.27;6.32;;;14.00;77.10;;;;;;4987550;28;20065;-52
2021/10/22 00:50:56;;;;;;;8.55;6.38;;;14.00;77.10;;;;;;4996004;28;20065;-51
2021/10/22 00:53:23;;;;;;;9.07;6.00;;;14.00;77.00;;;;;;4996598;28;20026;-52
2021/10/22 00:55:50;;;;;;;9.45;6.80;;;14.00;77.00;;;;;;4996319;28;20050;-53
2021/10/22 00:58:16;;;;;;;9.85;7.38;;;14.00;77.00;;;;;;4992246;28;20394;-52
2021/10/22 01:00:41;;;;;;;9.68;7.10;;;14.00;77.00;;;;;;4996424;28;20022;-52
2021/10/22 01:03:09;;;;;;;9.25;6.90;;;14.00;77.00;;;;;;4992624;28;20027;-51
2021/10/22 01:05:34;;;;;;;11.05;7.28;;;14.00;76.90;;;;;;4962366;28;20114;-51
2021/10/22 01:08:01;;;;;;;8.85;6.47;;;14.00;76.80;;;;;;4993893;28;20429;-52
2021/10/22 01:10:26;;;;;;;11.20;7.50;;;14.00;76.80;;;;;;4996257;28;20466;-53
2021/10/22 01:12:54;;;;;;;8.63;6.53;;;14.00;76.80;;;;;;4996309;28;20025;-52
2021/10/22 01:15:21;;;;;;;9.43;6.70;;;14.00;76.60;;;;;;4986961;28;20066;-52
2021/10/22 01:17:47;;;;;;;8.80;6.82;;;14.00;76.70;;;;;;4991167;28;20044;-51
2021/10/22 01:20:24;;;;;;;11.25;7.18;;;14.00;76.80;;;;;;4994605;28;20030;-52
2021/10/22 01:22:51;;;;;;;8.52;6.60;;;14.00;76.70;;;;;;4989515;28;20018;-54
2021/10/22 01:25:26;;;;;;;8.70;6.72;;;14.00;77.30;;;;;;4992940;28;20081;-52
2021/10/22 01:27:52;;;;;;;9.43;6.70;;;13.90;76.70;;;;;;4972545;28;20054;-53
2021/10/22 01:30:20;;;;;;;8.32;6.55;;;13.90;76.70;;;;;;4995532;28;20058;-52
2021/10/22 01:32:52;;;;;;;7.57;5.90;;;13.90;76.90;;;;;;4995667;28;20058;-53
2021/10/22 01:35:18;;;;;;;7.93;6.38;;;13.90;76.90;;;;;;4995181;28;20066;-55
2021/10/22 01:37:44;;;;;;;8.60;6.07;;;13.90;77.00;;;;;;4995210;28;20058;-52
2021/10/22 01:40:10;;;;;;;10.88;6.35;;;13.90;77.00;;;;;;4981879;28;20039;-52
2021/10/22 01:42:37;;;;;;;9.77;6.38;;;13.90;77.00;;;;;;4989283;28;20019;-54
2021/10/22 01:45:05;;;;;;;9.73;6.32;;;13.90;76.90;;;;;;4978999;28;20058;-51
2021/10/22 01:47:31;;;;;;;8.00;6.30;;;13.90;76.90;;;;;;4994536;28;20378;-51
2021/10/22 01:49:56;;;;;;;9.68;6.15;;;13.90;77.00;;;;;;4995224;28;20030;-52
2021/10/22 01:52:22;;;;;;;8.82;6.40;;;14.00;76.90;;;;;;4990675;28;20030;-51
2021/10/22 01:54:48;;;;;;;9.02;6.43;;;14.00;76.90;;;;;;4991713;28;20501;-52
2021/10/22 01:57:15;;;;;;;9.55;6.85;;;14.00;76.80;;;;;;4992107;28;20409;-52
2021/10/22 01:59:40;;;;;;;8.75;5.85;;;14.00;76.70;;;;;;4995050;28;20050;-52
2021/10/22 02:02:07;;;;;;;12.65;6.78;;;14.00;76.60;;;;;;4995375;28;20425;-52
2021/10/22 02:04:33;;;;;;;8.32;6.25;;;14.00;76.70;;;;;;4995254;28;20080;-52
2021/10/22 02:06:59;;;;;;;10.13;6.70;;;14.10;76.60;;;;;;4994838;28;20024;-52
2021/10/22 02:09:25;;;;;;;8.57;6.35;;;14.10;76.50;;;;;;4994985;28;20026;-51
2021/10/22 02:11:51;;;;;;;9.07;7.40;;;14.10;76.50;;;;;;4992820;28;20105;-53
2021/10/22 02:14:17;;;;;;;8.90;7.32;;;14.10;76.50;;;;;;4992436;28;20026;-53
2021/10/22 02:16:44;;;;;;;9.00;6.95;;;14.00;76.30;;;;;;4994911;28;20370;-52
2021/10/22 02:19:11;;;;;;;11.25;6.82;;;14.10;76.30;;;;;;4981230;28;20023;-51
2021/10/22 02:21:37;;;;;;;8.52;7.03;;;14.10;76.30;;;;;;4995067;28;20026;-51
2021/10/22 02:24:04;;;;;;;11.02;6.88;;;14.00;76.20;;;;;;4988173;28;20030;-52
2021/10/22 02:26:29;;;;;;;9.65;7.13;;;14.00;76.20;;;;;;4994616;28;20019;-52
2021/10/22 02:28:55;;;;;;;9.27;6.85;;;14.00;76.20;;;;;;4989857;28;20049;-52
2021/10/22 02:31:22;;;;;;;8.63;6.72;;;14.00;76.30;;;;;;4982688;28;20066;-53
2021/10/22 02:33:47;;;;;;;8.93;6.65;;;13.90;76.20;;;;;;4994649;28;20031;-51
2021/10/22 02:36:13;;;;;;;8.63;6.68;;;13.90;76.40;;;;;;4994127;28;20041;-52
2021/10/22 02:38:39;;;;;;;8.93;6.25;;;13.90;76.50;;;;;;4994057;28;20126;-52
2021/10/22 02:41:06;;;;;;;8.23;6.30;;;13.90;76.30;;;;;;4985546;28;20363;-52
2021/10/22 02:43:32;;;;;;;9.77;6.90;;;13.90;76.50;;;;;;4988047;28;20023;-53
2021/10/22 02:45:58;;;;;;;9.27;6.80;;;13.90;76.60;;;;;;4974810;28;20483;-51
2021/10/22 02:48:23;;;;;;;8.77;7.18;;;13.90;76.50;;;;;;4992611;28;20037;-52
2021/10/22 02:50:49;;;;;;;8.45;6.25;;;13.90;76.60;;;;;;4994263;28;20026;-51
2021/10/22 02:53:15;;;;;;;9.43;7.68;;;13.90;76.50;;;;;;4993360;28;20060;-53
2021/10/22 02:55:41;;;;;;;9.13;6.80;;;13.90;76.40;;;;;;4994357;28;20030;-51
2021/10/22 02:58:07;;;;;;;9.52;7.18;;;13.90;76.50;;;;;;4993545;28;20044;-54
2021/10/22 03:00:32;;;;;;;11.35;7.53;;;13.90;76.40;;;;;;4983073;28;20411;-52
2021/10/22 03:03:00;;;;;;;11.10;7.32;;;13.90;76.50;;;;;;4984496;28;20255;-52
2021/10/22 03:05:26;;;;;;;12.57;8.10;;;13.90;76.40;;;;;;4982347;28;20027;-52
2021/10/22 03:07:52;;;;;;;11.13;7.90;;;13.90;76.30;;;;;;4993553;28;20458;-54
2021/10/22 03:10:18;;;;;;;11.70;7.55;;;13.90;76.40;;;;;;4994039;28;20057;-52
2021/10/22 03:12:44;;;;;;;10.80;7.38;;;13.90;76.40;;;;;;4993985;28;20537;-53
2021/10/22 03:15:10;;;;;;;7.70;6.88;;;13.90;76.40;;;;;;4993703;28;20018;-51
2021/10/22 03:17:36;;;;;;;9.35;7.28;;;13.90;76.30;;;;;;4992654;28;20037;-52
2021/10/22 03:20:02;;;;;;;8.55;7.22;;;13.90;76.30;;;;;;4985865;28;20027;-52
2021/10/22 03:22:28;;;;;;;9.73;7.00;;;13.90;76.30;;;;;;4987317;28;20505;-51
2021/10/22 03:24:53;;;;;;;9.63;7.18;;;13.90;76.20;;;;;;4993015;28;20034;-52
2021/10/22 03:27:21;;;;;;;11.30;7.72;;;13.90;76.20;;;;;;4992034;28;20560;-52
2021/10/22 03:29:47;;;;;;;9.02;7.65;;;14.00;76.30;;;;;;4987148;28;20025;-51
2021/10/22 03:32:13;;;;;;;11.55;7.40;;;14.00;76.20;;;;;;4985477;28;20033;-52
2021/10/22 03:34:40;;;;;;;11.15;7.50;;;14.00;76.20;;;;;;4993469;28;20026;-52
2021/10/22 03:37:06;;;;;;;9.52;7.15;;;14.00;76.10;;;;;;4991483;28;20026;-52
2021/10/22 03:39:32;;;;;;;8.63;7.10;;;14.00;76.00;;;;;;4992779;28;20093;-53
2021/10/22 03:41:57;;;;;;;8.73;6.68;;;14.10;76.10;;;;;;4993441;28;20022;-52
2021/10/22 03:44:23;;;;;;;10.30;7.28;;;14.10;76.00;;;;;;4977399;28;20023;-53
2021/10/22 03:46:49;;;;;;;10.05;7.45;;;14.10;75.90;;;;;;4988006;28;20360;-54
2021/10/22 03:49:14;;;;;;;9.25;7.93;;;14.10;75.80;;;;;;4985227;28;20038;-53
2021/10/22 03:51:40;;;;;;;10.05;8.18;;;14.20;75.90;;;;;;4993505;28;20027;-51
2021/10/22 03:54:06;;;;;;;10.05;7.55;;;14.20;75.60;;;;;;4992841;28;20027;-53
2021/10/22 03:56:31;;;;;;;11.18;8.05;;;14.20;75.60;;;;;;4993087;28;20038;-53
2021/10/22 03:58:57;;;;;;;9.68;7.78;;;14.20;75.50;;;;;;4992244;28;20080;-52
2021/10/22 04:01:22;;;;;;;6.90;6.10;;;14.20;75.40;;;;;;4993283;28;20052;-52
2021/10/22 04:03:48;;;;;;;11.65;8.00;;;14.20;75.50;;;;;;4993143;28;20023;-52
2021/10/22 04:06:14;;;;;;;9.75;7.68;;;14.20;75.30;;;;;;4989060;28;20019;-52
2021/10/22 04:08:40;;;;;;;10.77;7.65;;;14.30;75.30;;;;;;4985144;28;20027;-52
2021/10/22 04:11:06;;;;;;;8.43;6.90;;;14.30;75.10;;;;;;4989308;28;20073;-54
2021/10/22 04:13:32;;;;;;;9.73;7.25;;;14.30;75.10;;;;;;4993077;28;20474;-52
2021/10/22 04:15:58;;;;;;;8.20;6.65;;;14.30;75.00;;;;;;4992961;28;20145;-53
2021/10/22 04:18:24;;;;;;;9.73;7.25;;;14.30;75.10;;;;;;4993007;28;20117;-52
2021/10/22 04:20:50;;;;;;;7.90;6.55;;;14.30;74.90;;;;;;4993345;28;20022;-52
2021/10/22 04:23:15;;;;;;;8.73;6.50;;;14.30;74.80;;;;;;4988252;28;20498;-52
2021/10/22 04:25:41;;;;;;;8.00;6.53;;;14.40;74.80;;;;;;4982972;28;20030;-54
2021/10/22 04:28:07;;;;;;;11.48;7.93;;;14.40;74.70;;;;;;4989970;28;20484;-53
2021/10/22 04:30:33;;;;;;;10.05;7.18;;;14.40;74.50;;;;;;4991610;28;20503;-52
2021/10/22 04:32:59;;;;;;;8.45;7.15;;;14.40;74.50;;;;;;4990870;28;20026;-52
2021/10/22 04:35:25;;;;;;;9.13;7.35;;;14.40;74.50;;;;;;4981543;28;20441;-52
2021/10/22 04:40:32;;;;;;;11.07;7.38;;;14.40;74.20;;;;;;4991577;28;20035;-52
2021/10/22 04:43:02;;;;;;;8.85;6.93;;;14.40;74.20;;;;;;4992133;28;20023;-52
2021/10/22 04:45:30;;;;;;;8.27;6.50;;;14.50;74.20;;;;;;4996505;28;20051;-52
2021/10/22 04:47:55;;;;;;;11.88;7.47;;;14.50;74.10;;;;;;4988856;28;20026;-52
2021/10/22 04:50:21;;;;;;;11.10;7.65;;;14.50;74.00;;;;;;4996280;28;20033;-52
2021/10/22 04:52:53;;;;;;;11.50;7.68;;;14.50;74.00;;;;;;4994056;28;20034;-52
2021/10/22 04:55:20;;;;;;;8.95;7.15;;;14.50;73.80;;;;;;4991175;28;20042;-52
2021/10/22 04:57:46;;;;;;;11.10;7.72;;;14.50;73.80;;;;;;4996536;28;20396;-52
2021/10/22 05:00:12;;;;;;;9.80;7.32;;;14.60;73.70;;;;;;4989707;28;20072;-52
2021/10/22 05:02:38;;;;;;;10.27;7.82;;;14.60;73.70;;;;;;4995236;28;20024;-52
2021/10/22 05:05:04;;;;;;;9.60;7.90;;;14.60;73.70;;;;;;4993828;28;20541;-52
2021/10/22 05:07:30;;;;;;;9.90;7.93;;;14.60;73.40;;;;;;4994839;28;20053;-52
2021/10/22 05:09:56;;;;;;;9.38;7.03;;;14.70;73.40;;;;;;4990126;28;20034;-51
2021/10/22 05:12:23;;;;;;;8.70;7.18;;;14.70;73.30;;;;;;4988104;28;20456;-51
2021/10/22 05:14:48;;;;;;;10.98;8.13;;;14.70;73.20;;;;;;4989531;28;20053;-52
2021/10/22 05:17:14;;;;;;;10.52;7.70;;;14.80;73.20;;;;;;4991532;28;20029;-51
2021/10/22 05:19:40;;;;;;;11.07;7.80;;;14.80;73.10;;;;;;4996724;28;20026;-51
2021/10/22 05:22:06;;;;;;;9.50;7.25;;;14.80;73.00;;;;;;4993406;28;20018;-54
2021/10/22 05:24:31;;;;;;;10.75;8.00;;;14.80;72.90;;;;;;4992125;28;20405;-51
2021/10/22 05:26:57;;;;;;;12.25;7.68;;;14.90;72.80;;;;;;4993096;28;20031;-52
2021/10/22 05:29:23;;;;;;;9.98;7.20;;;14.90;72.80;;;;;;4987294;28;20081;-51
2021/10/22 05:31:48;;;;;;;10.23;7.18;;;14.90;72.50;;;;;;4989075;28;20058;-51
2021/10/22 05:34:14;;;;;;;11.40;7.25;;;15.00;72.60;;;;;;4994868;28;20198;-51
2021/10/22 05:36:40;;;;;;;10.43;7.50;;;15.00;72.30;;;;;;4985390;28;20037;-51
2021/10/22 05:39:06;;;;;;;9.63;7.03;;;15.00;72.20;;;;;;4983867;28;20082;-51
2021/10/22 05:41:31;;;;;;;10.52;7.57;;;15.10;72.20;;;;;;4982993;28;20037;-51
2021/10/22 05:43:57;;;;;;;10.30;8.05;;;15.10;72.10;;;;;;4989836;28;20038;-51
2021/10/22 05:46:23;;;;;;;9.45;7.60;;;15.20;72.60;;;;;;4980788;28;20493;-52
2021/10/22 05:48:49;;;;;;;9.63;7.78;;;15.20;71.80;;;;;;4987882;28;20029;-53
2021/10/22 05:51:15;;;;;;;10.43;8.02;;;15.20;71.70;;;;;;4987524;28;20041;-52
2021/10/22 05:53:41;;;;;;;9.40;7.93;;;15.20;71.60;;;;;;4986391;28;20038;-51
2021/10/22 05:56:08;;;;;;;10.18;7.10;;;15.30;71.40;;;;;;4988469;28;20030;-54
2021/10/22 05:58:35;;;;;;;10.65;8.10;;;15.30;71.40;;;;;;4979230;28;20042;-51
2021/10/22 06:01:03;;;;;;;13.93;8.77;;;15.30;71.20;;;;;;4983409;28;20049;-53
2021/10/22 06:03:29;;;;;;;13.45;8.52;;;15.30;71.00;;;;;;4979701;28;20046;-51
2021/10/22 06:05:55;;;;;;;15.38;8.30;;;15.30;70.90;;;;;;4983922;28;20030;-51
2021/10/22 06:08:23;;;;;;;10.20;8.45;;;15.20;70.90;;;;;;4976711;28;20034;-51
2021/10/22 06:10:48;;;;;;;10.10;8.38;;;15.30;70.90;;;;;;4947588;28;20069;-51
2021/10/22 06:13:17;;;;;;;11.02;9.07;;;15.30;70.90;;;;;;4981874;28;20117;-51
2021/10/22 06:15:43;;;;;;;9.93;7.57;;;15.30;70.80;;;;;;4986793;28;20018;-53
2021/10/22 06:18:10;;;;;;;10.70;8.60;;;15.30;71.30;;;;;;4981172;28;20037;-51
2021/10/22 06:21:10;;;;;;;10.70;8.25;;;15.30;70.50;;;;;;4986974;28;20529;-53
2021/10/22 06:26:12;;;;;;;12.40;8.68;;;15.30;70.50;;;;;;4977792;28;20130;-52
2021/10/22 06:28:39;;;;;;;10.48;8.00;;;15.30;70.50;;;;;;4977628;28;20029;-54
2021/10/22 06:31:05;;;;;;;12.13;8.60;;;15.40;70.50;;;;;;4982052;28;20041;-52
2021/10/22 06:33:30;;;;;;;11.38;7.88;;;15.40;70.40;;;;;;4987686;28;20030;-53
2021/10/22 06:35:56;;;;;;;10.07;8.05;;;15.40;70.40;;;;;;4978184;28;20030;-53
2021/10/22 06:38:22;;;;;;;9.73;8.20;;;15.50;70.50;;;;;;4976906;28;20057;-52
2021/10/22 06:40:50;;;;;;;13.45;8.75;;;15.50;70.40;;;;;;4980722;28;20034;-54
2021/10/22 06:43:20;;;;;;;12.05;8.23;;;15.50;70.20;;;;;;4976506;28;20105;-53
2021/10/22 06:45:46;;;;;;;12.68;7.68;;;15.50;70.00;;;;;;4974066;28;20038;-54
2021/10/22 06:48:12;;;;;;;9.48;7.80;;;15.60;69.90;;;;;;4981857;28;20085;-53
2021/10/22 06:50:37;;;;;;;10.80;7.95;;;15.60;69.90;;;;;;4979748;28;20038;-52
2021/10/22 06:53:03;;;;;;;10.70;8.25;;;15.60;69.90;;;;;;4976891;28;20123;-52
2021/10/22 06:55:29;;;;;;;10.02;7.38;;;15.60;69.70;;;;;;4974718;28;20126;-53
2021/10/22 06:57:54;;;;;;;11.00;8.75;;;15.70;69.70;;;;;;4979195;28;20113;-54
2021/10/22 07:00:20;;;;;;;11.07;7.70;;;15.70;69.60;;;;;;4975606;28;20030;-55
2021/10/22 07:02:51;;;;;;;10.57;7.57;;;15.70;69.60;;;;;;4971852;28;20117;-51
2021/10/22 07:07:59;;;;;;;11.80;7.85;;;15.80;69.40;;;;;;4970233;28;20041;-53
2021/10/22 07:10:25;;;;;;;11.38;7.38;;;15.80;69.30;;;;;;4970904;28;20045;-54
2021/10/22 07:12:51;;;;;;;10.95;7.80;;;15.90;69.30;;;;;;4975313;28;20035;-53
2021/10/22 07:15:17;;;;;;;10.15;7.53;;;15.90;69.10;;;;;;4971313;28;20026;-55
2021/10/22 07:17:45;;;;;;;12.50;7.88;;;16.00;69.10;;;;;;4970877;28;20074;-54
2021/10/22 07:20:12;;;;;;;9.73;7.55;;;16.00;68.90;;;;;;4967564;28;20029;-53
2021/10/22 07:22:47;;;;;;;11.50;7.90;;;16.10;68.90;;;;;;4972403;28;20033;-52
2021/10/22 07:25:14;;;;;;;11.18;7.93;;;16.20;68.80;;;;;;4972084;28;20039;-53
2021/10/22 07:27:39;;;;;;;10.55;7.45;;;16.20;68.60;;;;;;4966171;28;20038;-54
2021/10/22 07:30:06;;;;;;;9.00;6.80;;;16.30;68.60;;;;;;4964597;28;20040;-54
2021/10/22 07:32:31;;;;;;;9.55;6.85;;;16.40;68.50;;;;;;4972630;28;20493;-55
2021/10/22 07:34:57;;;;;;;8.13;6.70;;;16.50;68.40;;;;;;4972928;28;20038;-54
2021/10/22 07:37:23;;;;;;;10.27;7.63;;;16.60;68.20;;;;;;4967721;28;20040;-54
2021/10/22 07:39:49;;;;;;;13.38;8.13;;;16.60;68.10;;;;;;4969925;28;20058;-54
2021/10/22 07:42:14;;;;;;;9.25;6.90;;;16.70;67.90;;;;;;4966722;28;20039;-54
2021/10/22 07:44:40;;;;;;;9.70;7.88;;;16.80;67.70;;;;;;4966026;28;20035;-55
2021/10/22 07:47:06;;;;;;;8.93;6.63;;;16.80;67.50;;;;;;4963369;28;20031;-55
2021/10/22 07:49:32;;;;;;;8.70;6.45;;;16.90;67.40;;;;;;4961651;28;20026;-55
2021/10/22 07:51:58;;;;;;;8.70;7.00;;;17.00;67.30;;;;;;4962248;28;20030;-55
2021/10/22 07:54:24;;;;;;;9.13;6.28;;;17.00;67.10;;;;;;4960397;28;20768;-53
2021/10/22 07:56:49;;;;;;;8.80;6.25;;;17.10;67.10;;;;;;4962658;28;20034;-52
2021/10/22 07:59:15;;;;;;;8.88;6.70;;;17.20;66.90;;;;;;4964828;28;20038;-52
2021/10/22 08:01:42;;;;;;;9.45;7.05;;;17.20;66.70;;;;;;4963971;28;20034;-55
2021/10/22 08:04:09;;;;;;;10.75;7.75;;;17.30;66.50;;;;;;4951447;28;20085;-55
2021/10/22 08:06:36;;;;;;;9.43;6.68;;;17.40;66.30;;;;;;4964077;28;20027;-54
2021/10/22 08:09:03;;;;;;;11.13;7.75;;;17.50;66.10;;;;;;4965927;28;20371;-54
2021/10/22 08:11:28;;;;;;;8.57;6.22;;;17.50;65.90;;;;;;4962798;28;20030;-55
2021/10/22 08:13:54;;;;;;;8.77;6.70;;;17.60;65.90;;;;;;4968258;28;20675;-55
2021/10/22 08:16:20;;;;;;;10.35;7.45;;;17.70;65.90;;;;;;4965586;28;20030;-52
2021/10/22 08:18:47;;;;;;;8.43;6.10;;;17.70;65.60;;;;;;4968997;28;20038;-55
2021/10/22 08:21:33;;;;;;;9.52;6.88;;;17.80;65.60;;;;;;4969679;28;20445;-55
2021/10/22 08:23:59;;;;;;;11.30;7.10;;;17.80;65.30;;;;;;4973474;28;20038;-55
2021/10/22 08:26:25;;;;;;;9.25;6.65;;;17.90;65.00;;;;;;4967017;28;20053;-55
2021/10/22 08:28:50;;;;;;;8.27;6.45;;;17.90;64.80;;;;;;4973186;28;20038;-55
2021/10/22 08:31:16;;;;;;;6.93;5.55;;;18.00;64.70;;;;;;4964048;28;20474;-53
2021/10/22 08:33:41;;;;;;;8.30;6.43;;;18.10;64.80;;;;;;4964974;28;20375;-55
2021/10/22 08:36:07;;;;;;;9.38;5.78;;;18.10;64.70;;;;;;4960811;28;20034;-55
2021/10/22 08:38:34;;;;;;;7.70;6.90;;;18.20;64.70;;;;;;4964406;28;20686;-55
2021/10/22 08:41:01;;;;;;;9.13;6.03;;;18.30;64.30;;;;;;4967626;28;20124;-55
2021/10/22 08:43:28;;;;;;;9.23;6.65;;;18.30;64.20;;;;;;4965917;28;21069;-55
2021/10/22 08:45:58;;;;;;;8.75;6.22;;;18.40;64.00;;;;;;4964912;28;20029;-55
2021/10/22 08:48:24;;;;;;;7.93;6.22;;;18.50;63.70;;;;;;4969715;28;20035;-54
2021/10/22 08:50:51;;;;;;;6.38;5.20;;;18.50;63.60;;;;;;4967073;28;20046;-54
2021/10/22 08:53:16;;;;;;;7.63;5.80;;;18.60;63.20;;;;;;4963878;28;20038;-55
2021/10/22 08:55:43;;;;;;;10.27;5.40;;;18.70;63.00;;;;;;4967848;28;20046;-55
2021/10/22 08:58:09;;;;;;;6.57;4.88;;;18.70;62.90;;;;;;4962094;28;20031;-54
2021/10/22 09:00:35;;;;;;;8.80;5.90;;;18.70;62.50;;;;;;4966517;28;20058;-54
2021/10/22 09:03:15;;;;;;;6.78;5.57;;;18.80;62.30;;;;;;4965984;28;20038;-55
2021/10/22 09:06:01;;;;;;;7.45;5.28;;;18.90;61.90;;;;;;4970371;28;20034;-54
2021/10/22 09:08:38;;;;;;;7.10;4.30;;;18.90;61.60;;;;;;4968081;28;20510;-54
2021/10/22 09:11:06;;;;;;;6.57;4.50;;;18.90;61.20;;;;;;4972109;28;20068;-55
2021/10/22 09:13:36;;;;;;;5.43;4.55;;;18.90;60.90;;;;;;4978795;28;20030;-51
2021/10/22 09:16:22;;;;;;;8.18;4.43;;;18.90;60.80;;;;;;4974310;28;20518;-55
2021/10/22 09:18:49;;;;;;;7.55;4.55;;;18.90;60.80;;;;;;4970522;28;23287;-55
2021/10/22 09:21:27;;;;;;;7.57;4.90;;;18.90;60.70;;;;;;4970768;28;20449;-51
2021/10/22 09:24:11;;;;;;;5.85;4.55;;;18.90;60.60;;;;;;4972960;28;20105;-55
2021/10/22 09:26:37;;;;;;;7.13;4.90;;;18.90;60.40;;;;;;4970688;28;20640;-55
2021/10/22 09:29:18;;;;;;;5.72;4.13;;;18.90;60.20;;;;;;4970901;28;20138;-55
2021/10/22 09:31:46;;;;;;;6.53;4.00;;;19.00;60.10;;;;;;4970166;28;20034;-55
2021/10/22 09:34:12;;;;;;;6.05;4.60;;;19.00;60.00;;;;;;4969800;28;20042;-54
2021/10/22 09:36:40;;;;;;;5.63;3.92;;;19.10;60.00;;;;;;4974099;28;20045;-54
2021/10/22 09:39:08;;;;;;;7.22;5.00;;;19.10;59.80;;;;;;4968918;28;20144;-55
2021/10/22 09:41:37;;;;;;;7.93;5.10;;;19.10;59.70;;;;;;4974858;28;20034;-55
2021/10/22 09:44:26;;;;;;;4.65;3.78;;;19.20;59.40;;;;;;4974900;28;20023;-55
2021/10/22 09:47:13;;;;;;;6.10;4.40;;;19.20;59.30;;;;;;4969745;28;20049;-55
2021/10/22 09:49:44;;;;;;;4.65;3.92;;;19.10;59.10;;;;;;4958163;28;20113;-55
2021/10/22 09:52:22;;;;;;;5.18;4.15;;;19.10;59.10;;;;;;4956042;28;20552;-55
2021/10/22 09:55:09;;;;;;;4.85;3.75;;;19.10;59.00;;;;;;4968811;28;20379;-55
2021/10/22 09:57:35;;;;;;;6.00;4.40;;;19.00;59.00;;;;;;4969145;28;20041;-55
2021/10/22 10:00:10;;;;;;;5.78;4.47;;;19.00;59.00;;;;;;4968247;28;20491;-55
2021/10/22 10:02:36;;;;;;;6.40;4.20;;;18.90;58.90;;;;;;4970426;28;20050;-55
2021/10/22 10:05:08;;;;;;;7.30;4.38;;;18.90;58.80;;;;;;4968407;28;20057;-55
2021/10/22 10:07:40;;;;;;;;;;;18.90;58.60;;;;;;4964481;28;20170;-55
2021/10/22 10:10:08;;;;;;;4.20;3.50;;;18.80;58.70;;;;;;4967231;28;20297;-55
2021/10/22 10:12:35;;;;;;;4.93;3.63;;;18.80;58.90;;;;;;4954538;28;20489;-55
2021/10/22 10:15:03;;;;;;;4.50;3.60;;;18.80;58.80;;;;;;4973680;28;20073;-55
2021/10/22 10:17:29;;;;;;;5.47;3.90;;;18.80;58.60;;;;;;4971256;28;20520;-55
2021/10/22 10:19:56;;;;;;;7.53;3.90;;;18.70;58.20;;;;;;4962906;28;20470;-55
2021/10/22 10:22:27;;;;;;;5.57;3.78;;;18.70;58.10;;;;;;4962182;28;20117;-55
2021/10/22 10:24:59;;;;;;;4.78;3.78;;;18.70;58.10;;;;;;4970187;28;20018;-55
2021/10/22 10:27:25;;;;;;;6.38;4.13;;;18.60;58.20;;;;;;4968304;28;20082;-55
2021/10/22 10:29:59;;;;;;;6.25;4.10;;;18.60;58.20;;;;;;4978913;28;20109;-55
2021/10/22 10:32:27;;;;;;;4.57;3.53;;;18.60;58.00;;;;;;4980114;28;20024;-56
2021/10/22 10:35:32;;;;;;;6.07;3.72;;;18.60;57.90;;;;;;4975278;28;20038;-55
2021/10/22 10:37:58;;;;;;;4.93;3.53;;;18.70;57.10;;;;;;4931395;28;20054;-56
2021/10/22 10:40:32;;;;;;;5.65;3.58;;;18.60;57.20;;;;;;4967867;28;20812;-55
2021/10/22 10:43:21;;;;;;;6.00;3.50;;;18.60;56.90;;;;;;4970757;28;20043;-56
2021/10/22 10:45:47;;;;;;;7.05;3.75;;;18.60;57.00;;;;;;4975222;28;20750;-55
2021/10/22 10:48:18;;;;;;;3.38;2.85;;;18.60;57.00;;;;;;4973127;28;20076;-54
2021/10/22 10:50:49;;;;;;;4.70;3.38;;;18.60;56.90;;;;;;4973329;28;20038;-55
2021/10/22 10:53:42;;;;;;;4.63;3.38;;;18.50;56.90;;;;;;4969293;28;20038;-56
2021/10/22 10:56:31;;;;;;;5.32;3.10;;;18.50;56.80;;;;;;4970767;28;20314;-56
2021/10/22 10:58:57;;;;;;;4.40;3.15;;;18.60;56.80;;;;;;4965303;28;20347;-56
2021/10/22 11:01:30;;;;;;;4.85;2.90;;;18.50;56.70;;;;;;4969628;28;20034;-52
2021/10/22 11:03:57;;;;;;;4.35;3.20;;;18.60;56.40;;;;;;4981392;28;20062;-54
2021/10/22 11:06:46;;;;;;;6.22;3.08;;;18.60;56.20;;;;;;4977886;28;20588;-54
2021/10/22 11:09:34;;;;;;;4.38;3.03;;;18.60;55.90;;;;;;4967210;28;20038;-55
2021/10/22 11:12:04;;;;;;;3.28;2.70;;;18.60;55.80;;;;;;4963188;28;20042;-55
2021/10/22 11:15:00;;;;;;;5.43;3.13;;;18.70;55.60;;;;;;4970603;28;20050;-55
2021/10/22 11:17:28;;;;;;;3.60;2.97;;;18.70;55.40;;;;;;4944376;28;20043;-55
2021/10/22 11:19:57;;;;;;;3.30;2.67;;;18.70;55.10;;;;;;4970090;28;20030;-54
2021/10/22 11:22:26;;;;;;;3.60;2.70;;;18.70;54.90;;;;;;4971051;28;20027;-55
2021/10/22 11:24:52;;;;;;;3.88;3.10;;;18.70;54.80;;;;;;4969998;28;20069;-55
2021/10/22 11:27:20;;;;;;;3.70;3.10;;;18.70;54.40;;;;;;4975202;28;20109;-56
2021/10/22 11:29:47;;;;;;;4.43;3.10;;;18.70;54.20;;;;;;4972805;28;20030;-55
2021/10/22 11:32:15;;;;;;;3.85;3.33;;;18.70;53.90;;;;;;4970631;28;20038;-55
2021/10/22 11:34:52;;;;;;;4.75;3.25;;;18.70;53.70;;;;;;4959566;28;20088;-55
2021/10/22 11:37:20;;;;;;;4.40;3.28;;;18.60;53.70;;;;;;4968614;28;20034;-56
2021/10/22 11:39:54;;;;;;;4.28;3.45;;;18.60;53.70;;;;;;4973823;28;20038;-55
2021/10/22 11:42:27;;;;;;;6.05;3.63;;;18.60;53.50;;;;;;4962237;28;20096;-54
2021/10/22 11:44:59;;;;;;;4.72;3.70;;;18.60;53.50;;;;;;4965091;28;20039;-56
2021/10/22 11:47:37;;;;;;;5.07;4.32;;;18.60;53.40;;;;;;4966575;28;20034;-54
2021/10/22 11:50:21;;;;;;;6.07;3.90;;;18.60;53.20;;;;;;4964298;28;20026;-55
2021/10/22 11:53:05;;;;;;;4.80;3.92;;;18.60;53.10;;;;;;4969540;28;20486;-54
2021/10/22 11:55:31;;;;;;;10.27;4.47;;;18.60;53.10;;;;;;4964967;28;20031;-54
2021/10/22 11:58:04;;;;;;;4.45;3.60;;;18.60;53.00;;;;;;4966784;28;20092;-54
2021/10/22 12:00:30;;;;;;;5.72;4.00;;;18.60;52.80;;;;;;4972050;28;21077;-52
2021/10/22 12:02:56;;;;;;;5.20;3.50;;;18.70;52.90;;;;;;4963535;28;20023;-55
2021/10/22 12:05:22;;;;;;;4.45;3.65;;;18.70;52.80;;;;;;4965947;28;20039;-56
2021/10/22 12:07:50;;;;;;;4.70;3.63;;;18.70;52.90;;;;;;4964725;28;20038;-55
2021/10/22 12:10:17;;;;;;;4.82;3.55;;;18.70;53.10;;;;;;4966281;28;20031;-52
2021/10/22 12:12:46;;;;;;;5.30;3.67;;;18.70;53.00;;;;;;4958304;28;20289;-55
2021/10/22 12:15:33;;;;;;;5.45;3.67;;;18.70;52.80;;;;;;4954027;28;20082;-56
2021/10/22 12:18:01;;;;;;;5.63;4.10;;;18.70;52.90;;;;;;4950870;28;20046;-55
2021/10/22 12:20:29;;;;;;;5.65;4.18;;;18.70;52.90;;;;;;4958930;28;20030;-53
2021/10/22 12:22:58;;;;;;;5.45;3.97;;;18.70;52.80;;;;;;4957528;28;20081;-56
2021/10/22 12:25:28;;;;;;;5.75;3.80;;;18.70;52.80;;;;;;4964228;28;20038;-56
2021/10/22 12:27:55;;;;;;;5.45;4.57;;;18.70;52.90;;;;;;4966454;28;20105;-56
2021/10/22 12:30:31;;;;;;;5.10;4.10;;;18.70;52.90;;;;;;4961625;28;20166;-56
2021/10/22 12:33:06;;;;;;;4.95;3.60;;;18.70;52.90;;;;;;4966276;28;20169;-55
2021/10/22 12:35:35;;;;;;;6.22;4.20;;;18.80;52.90;;;;;;4967525;28;21515;-55
2021/10/22 12:38:14;;;;;;;5.28;4.00;;;18.80;52.60;;;;;;4969149;28;20045;-55
2021/10/22 12:40:44;;;;;;;4.93;3.85;;;18.80;52.20;;;;;;4972002;28;20035;-56
2021/10/22 12:43:12;;;;;;;6.00;4.23;;;18.80;51.90;;;;;;4967335;28;20036;-56
2021/10/22 12:45:49;;;;;;;8.35;4.63;;;18.80;51.50;;;;;;4975204;28;20766;-55
2021/10/22 12:48:18;;;;;;;5.63;4.78;;;18.80;51.10;;;;;;4969291;28;20073;-56
2021/10/22 12:50:45;;;;;;;7.85;5.25;;;18.80;50.90;;;;;;4971938;28;20031;-54
2021/10/22 12:53:13;;;;;;;8.02;5.70;;;18.90;50.70;;;;;;4974960;28;20034;-56
2021/10/22 12:55:41;;;;;;;7.28;5.70;;;18.80;50.60;;;;;;4973365;28;20031;-55
2021/10/22 12:58:20;;;;;;;8.20;5.68;;;18.80;50.40;;;;;;4961126;28;20822;-56
2021/10/22 13:01:05;;;;;;;8.57;5.78;;;18.80;50.40;;;;;;4969157;28;20034;-55